createdAt,value
2022-08-18T00:01:15.912Z,99994.97
2022-08-18T00:03:57.249Z,99990.19
2022-08-18T00:06:30.247Z,99982.06
2022-08-18T00:09:00.987Z,99984.16
2022-08-18T00:11:41.726Z,99978.19
2022-08-18T00:14:19.343Z,99978.75
2022-08-18T00:16:52.818Z,99980.97
2022-08-18T00:19:47.093Z,99979.78
2022-08-18T00:22:14.671Z,99970.06
2022-08-18T00:24:48.163Z,99970.53
2022-08-18T00:27:26.146Z,99969.53
2022-08-18T00:29:59.133Z,99960.94
2022-08-18T00:32:30.521Z,99954.41
2022-08-18T00:35:00.119Z,99956.41
2022-08-18T00:37:29.792Z,99957.69
2022-08-18T00:39:59.433Z,99961.03
2022-08-18T00:42:32.190Z,99960.50
2022-08-18T00:45:03.459Z,99961.22
2022-08-18T00:47:43.089Z,99958.13
2022-08-18T00:50:15.745Z,99952.81
2022-08-18T00:52:50.974Z,99953.56
2022-08-18T00:55:20.791Z,99959.16
2022-08-18T00:57:55.042Z,99958.38
2022-08-18T01:00:24.674Z,99960.75
2022-08-18T01:02:56.174Z,99961.06
2022-08-18T01:05:28.345Z,99960.69
2022-08-18T01:07:58.155Z,99959.25
2022-08-18T01:10:27.847Z,99958.88
2022-08-18T01:13:00.817Z,99971.56
2022-08-18T01:15:30.769Z,99967.69
2022-08-18T01:18:13.487Z,99977.75
2022-08-18T01:20:58.729Z,99997.78
2022-08-18T01:23:30.934Z,100001.53
2022-08-18T01:26:01.017Z,100000.16
2022-08-18T01:28:30.753Z,100000.91
2022-08-18T01:31:00.956Z,100009.44
2022-08-18T01:33:32.582Z,100009.69
2022-08-18T01:36:03.716Z,100016.72
2022-08-18T01:38:35.922Z,100020.31
2022-08-18T01:41:26.758Z,100009.28
2022-08-18T01:43:57.174Z,100010.84
2022-08-18T01:46:26.829Z,100024.34
2022-08-18T01:48:58.689Z,100031.38
2022-08-18T01:51:38.860Z,100028.59
2022-08-18T01:54:13.576Z,100023.78
2022-08-18T01:56:43.567Z,100010.84
2022-08-18T01:59:15.179Z,100021.53
2022-08-18T02:01:48.816Z,100010.81
2022-08-18T02:04:35.117Z,100008.34
2022-08-18T02:07:06.838Z,100012.84
2022-08-18T02:09:38.764Z,100013.34
2022-08-18T02:12:09.158Z,100001.31
2022-08-18T02:14:39.084Z,100006.41
2022-08-18T02:17:10.111Z,100009.22
2022-08-18T02:19:40.941Z,100007.22
2022-08-18T02:22:10.478Z,100011.09
2022-08-18T02:24:42.740Z,100001.88
2022-08-18T02:27:12.691Z,100007.28
2022-08-18T02:29:42.305Z,100012.63
2022-08-18T02:32:12.003Z,100002.66
2022-08-18T02:34:42.802Z,100008.97
2022-08-18T02:37:15.403Z,100005.56
2022-08-18T02:39:48.002Z,99998.47
2022-08-18T02:42:17.658Z,99998.56
2022-08-18T02:44:47.293Z,99998.41
2022-08-18T02:47:16.917Z,99998.00
2022-08-18T02:49:46.483Z,99997.75
2022-08-18T02:52:16.833Z,99990.63
2022-08-18T02:54:49.519Z,99987.72
2022-08-18T02:57:19.405Z,99995.25
2022-08-18T02:59:49.018Z,99992.19
2022-08-18T03:02:20.257Z,100004.50
2022-08-18T03:04:51.369Z,100006.88
2022-08-18T03:07:21.070Z,100011.41
2022-08-18T03:09:53.382Z,100008.91
2022-08-18T03:12:23.159Z,100004.28
2022-08-18T03:14:52.787Z,100015.19
2022-08-18T03:17:22.442Z,100023.91
2022-08-18T03:19:52.803Z,100017.03
2022-08-18T03:22:28.401Z,100015.00
2022-08-18T03:25:03.232Z,100021.31
2022-08-18T03:27:33.228Z,100016.88
2022-08-18T03:30:03.826Z,100016.22
2022-08-18T03:32:33.512Z,100025.78
2022-08-18T03:35:03.098Z,100018.91
2022-08-18T03:37:33.601Z,100017.44
2022-08-18T03:40:06.611Z,100001.84
2022-08-18T03:42:36.231Z,100004.22
2022-08-18T03:45:13.273Z,99998.81
2022-08-18T03:47:51.980Z,100006.34
2022-08-18T03:50:25.636Z,100002.34
2022-08-18T03:52:55.453Z,100002.84
2022-08-18T03:55:27.797Z,100007.47
2022-08-18T03:58:02.868Z,100016.22
2022-08-18T04:00:33.755Z,100011.16
2022-08-18T04:03:04.816Z,100001.78
2022-08-18T04:05:35.283Z,100005.47
2022-08-18T04:08:06.727Z,99994.91
2022-08-18T04:10:38.949Z,99997.03
2022-08-18T04:13:08.899Z,100000.75
2022-08-18T04:15:39.519Z,99987.59
2022-08-18T04:18:10.067Z,100001.75
2022-08-18T04:20:59.440Z,100004.69
2022-08-18T04:23:29.737Z,100003.81
2022-08-18T04:26:19.072Z,100002.91
2022-08-18T04:28:49.262Z,99998.91
2022-08-18T04:31:23.733Z,100003.53
2022-08-18T04:33:53.369Z,100004.56
2022-08-18T04:36:22.990Z,100008.72
2022-08-18T04:38:52.764Z,100010.75
2022-08-18T04:41:29.547Z,100006.59
2022-08-18T04:44:00.053Z,100005.31
2022-08-18T04:46:29.845Z,100018.00
2022-08-18T04:49:01.347Z,100023.00
2022-08-18T04:52:36.483Z,100024.22
2022-08-18T04:54:19.290Z,100020.03
2022-08-18T04:56:51.454Z,100024.91
2022-08-18T04:59:21.062Z,100021.16
2022-08-18T05:01:50.803Z,100020.94
2022-08-18T05:04:20.567Z,100024.41
2022-08-18T05:06:50.306Z,100021.41
2022-08-18T05:09:22.770Z,100032.81
2022-08-18T05:11:55.578Z,100025.38
2022-08-18T05:14:25.212Z,100028.22
2022-08-18T05:16:54.778Z,100037.88
2022-08-18T05:19:26.866Z,100038.97
2022-08-18T05:21:59.575Z,100048.06
2022-08-18T05:24:36.896Z,100052.38
2022-08-18T05:27:10.212Z,100067.06
2022-08-18T05:29:41.864Z,100058.63
2022-08-18T05:32:30.512Z,100067.72
2022-08-18T05:35:07.467Z,100061.69
2022-08-18T05:37:40.715Z,100064.09
2022-08-18T05:40:11.802Z,100067.47
2022-08-18T05:42:44.192Z,100055.34
2022-08-18T05:45:16.272Z,100059.56
2022-08-18T05:47:45.912Z,100055.50
2022-08-18T05:50:20.469Z,100054.84
2022-08-18T05:52:53.626Z,100060.69
2022-08-18T05:55:38.044Z,100057.84
2022-08-18T05:58:13.685Z,100053.53
2022-08-18T06:00:43.240Z,100052.44
2022-08-18T06:03:16.256Z,100048.97
2022-08-18T06:05:50.175Z,100041.69
2022-08-18T06:08:20.079Z,100051.19
2022-08-18T06:10:51.362Z,100045.94
2022-08-18T06:13:23.528Z,100046.28
2022-08-18T06:15:55.714Z,100054.03
2022-08-18T06:18:40.399Z,100044.31
2022-08-18T06:21:38.770Z,100035.19
2022-08-18T06:24:13.061Z,100034.91
2022-08-18T06:26:45.272Z,100029.50
2022-08-18T06:29:25.805Z,100026.72
2022-08-18T06:31:58.754Z,100028.94
2022-08-18T06:34:32.868Z,100021.59
2022-08-18T06:37:04.570Z,100023.47
2022-08-18T06:39:38.643Z,100021.78
2022-08-18T06:42:08.465Z,100027.41
2022-08-18T06:44:42.635Z,100028.81
2022-08-18T06:47:15.527Z,100034.13
2022-08-18T06:49:48.460Z,100022.66
2022-08-18T06:52:25.584Z,100028.72
2022-08-18T06:54:55.782Z,100033.91
2022-08-18T06:57:28.051Z,100034.00
2022-08-18T07:00:01.557Z,100034.00
2022-08-18T07:02:45.084Z,100030.38
2022-08-18T07:05:22.940Z,100035.97
2022-08-18T07:08:10.513Z,100037.69
2022-08-18T07:10:41.262Z,100036.56
2022-08-18T07:13:22.383Z,100030.84
2022-08-18T07:15:54.700Z,100041.28
2022-08-18T07:18:26.389Z,100043.28
2022-08-18T07:20:57.374Z,100044.31
2022-08-18T07:23:29.570Z,100043.00
2022-08-18T07:26:08.749Z,100043.97
2022-08-18T07:28:39.886Z,100052.56
2022-08-18T07:31:17.751Z,100040.78
2022-08-18T07:33:51.459Z,100035.97
2022-08-18T07:36:21.670Z,100038.47
2022-08-18T07:38:54.601Z,100046.09
2022-08-18T07:41:26.172Z,100046.41
2022-08-18T07:44:01.878Z,100050.59
2022-08-18T07:46:36.061Z,100059.72
2022-08-18T07:49:06.488Z,100068.63
2022-08-18T07:51:44.063Z,100074.75
2022-08-18T07:54:47.268Z,100081.28
2022-08-18T07:57:11.003Z,100095.47
2022-08-18T07:59:44.770Z,100098.09
2022-08-18T08:02:27.521Z,100094.53
2022-08-18T08:05:02.804Z,100102.22
2022-08-18T08:07:33.191Z,100105.88
2022-08-18T08:10:23.427Z,100117.06
2022-08-18T08:13:06.105Z,100116.91
2022-08-18T08:15:42.225Z,100119.00
2022-08-18T08:18:17.361Z,100118.22
2022-08-18T08:20:49.031Z,100113.84
2022-08-18T08:23:24.697Z,100122.03
2022-08-18T08:29:35.949Z,100123.31
2022-08-18T08:32:07.170Z,100125.09
2022-08-18T08:34:42.519Z,100121.75
2022-08-18T08:37:23.865Z,100130.44
2022-08-18T08:39:57.934Z,100123.34
2022-08-18T08:42:34.500Z,100124.25
2022-08-18T08:45:09.658Z,100123.19
2022-08-18T08:47:41.397Z,100126.69
2022-08-18T08:53:35.818Z,100124.69
2022-08-18T08:56:09.227Z,100128.00
2022-08-18T08:58:56.452Z,100114.09
2022-08-18T09:01:29.632Z,100118.91
2022-08-18T09:04:00.565Z,100117.72
2022-08-18T09:06:32.914Z,100116.75
2022-08-18T09:09:16.571Z,100126.44
2022-08-18T09:11:57.059Z,100131.75
2022-08-18T09:14:50.116Z,100135.56
2022-08-18T09:17:34.201Z,100133.88
2022-08-18T09:20:27.653Z,100133.06
2022-08-18T09:23:01.905Z,100132.84
2022-08-18T09:25:52.180Z,100139.88
2022-08-18T09:28:23.460Z,100135.19
2022-08-18T09:31:12.541Z,100131.38
2022-08-18T09:33:53.585Z,100130.28
2022-08-18T09:36:30.205Z,100130.59
2022-08-18T09:39:13.285Z,100143.03
2022-08-18T09:41:52.579Z,100141.13
2022-08-18T09:44:52.414Z,100138.13
2022-08-18T09:47:51.817Z,100133.91
2022-08-18T09:50:38.946Z,100132.69
2022-08-18T09:53:19.838Z,100123.16
2022-08-18T09:56:04.812Z,100141.44
2022-08-18T09:58:58.765Z,100135.09
2022-08-18T10:01:40.173Z,100137.00
2022-08-18T10:04:48.510Z,100136.59
2022-08-18T10:07:38.843Z,100131.56
2022-08-18T10:13:18.253Z,100142.03
2022-08-18T10:16:10.219Z,100141.22
2022-08-18T10:18:56.081Z,100137.31
2022-08-18T10:21:31.172Z,100133.31
2022-08-18T10:24:29.840Z,100129.50
2022-08-18T10:27:13.249Z,100134.00
2022-08-18T10:29:56.793Z,100136.81
2022-08-18T10:32:54.540Z,100131.78
2022-08-18T10:35:59.114Z,100121.59
2022-08-18T10:38:41.242Z,100117.53
2022-08-18T10:41:27.219Z,100113.41
2022-08-18T10:44:00.567Z,100115.50
2022-08-18T10:46:33.151Z,100100.69
2022-08-18T10:49:18.326Z,100097.41
2022-08-18T10:51:59.971Z,100100.59
2022-08-18T10:54:35.147Z,100074.06
2022-08-18T10:57:23.152Z,100082.44
2022-08-18T10:59:55.963Z,100078.38
2022-08-18T11:02:41.171Z,100093.47
2022-08-18T11:05:15.119Z,100079.38
2022-08-18T11:07:46.883Z,100076.53
2022-08-18T11:10:29.844Z,100083.38
2022-08-18T11:13:07.516Z,100092.34
2022-08-18T11:15:45.863Z,100093.78
2022-08-18T11:18:24.283Z,100108.28
2022-08-18T11:20:56.508Z,100115.38
2022-08-18T11:23:26.317Z,100121.31
2022-08-18T11:25:57.465Z,100123.91
2022-08-18T11:28:31.761Z,100125.91
2022-08-18T11:31:02.084Z,100109.50
2022-08-18T11:33:37.671Z,100073.00
2022-08-18T11:36:10.305Z,100042.00
2022-08-18T11:38:42.078Z,100028.03
2022-08-18T11:41:17.812Z,100020.22
2022-08-18T11:43:48.023Z,100016.69
2022-08-18T11:46:29.625Z,100023.34
2022-08-18T11:49:01.379Z,100044.16
2022-08-18T11:51:34.995Z,100056.84
2022-08-18T11:54:05.803Z,100053.69
2022-08-18T11:56:35.659Z,100044.84
2022-08-18T11:59:06.733Z,100044.03
2022-08-18T12:01:42.140Z,100058.78
2022-08-18T12:04:20.736Z,100048.69
2022-08-18T12:07:06.191Z,100048.53
2022-08-18T12:12:35.852Z,100050.06
2022-08-18T12:15:10.493Z,100060.44
2022-08-18T12:17:52.612Z,100061.03
2022-08-18T12:20:22.825Z,100043.31
2022-08-18T12:22:55.370Z,100053.34
2022-08-18T12:25:25.963Z,100041.75
2022-08-18T12:27:55.779Z,100036.84
2022-08-18T12:30:25.419Z,100031.09
2022-08-18T12:33:05.647Z,100015.69
2022-08-18T12:35:41.796Z,100010.00
2022-08-18T12:38:17.943Z,100010.97
2022-08-18T12:40:47.862Z,100001.44
2022-08-18T12:43:17.506Z,99993.66
2022-08-18T12:45:47.124Z,100005.81
2022-08-18T12:48:16.781Z,99998.44
2022-08-18T12:50:54.369Z,99993.47
2022-08-18T12:53:29.483Z,99986.06
2022-08-18T12:56:10.665Z,99999.66
2022-08-18T12:58:41.375Z,100008.09
2022-08-18T13:01:11.077Z,100003.44
2022-08-18T13:06:30.921Z,100013.03
2022-08-18T13:09:03.175Z,100012.53
2022-08-18T13:11:46.175Z,100020.22
2022-08-18T13:14:16.150Z,100012.06
2022-08-18T13:16:54.955Z,100008.38
2022-08-18T13:19:24.764Z,100001.97
2022-08-18T13:22:01.761Z,100000.03
2022-08-18T13:24:35.798Z,99991.41
2022-08-18T13:27:18.394Z,99997.47
2022-08-18T13:29:52.736Z,99987.97
2022-08-18T13:32:22.491Z,99979.25
2022-08-18T13:34:52.135Z,99986.16
2022-08-18T13:37:26.739Z,99981.16
2022-08-18T13:40:00.280Z,99964.31
2022-08-18T13:42:50.304Z,99958.19
2022-08-18T13:45:26.221Z,99984.19
2022-08-18T13:47:58.309Z,99981.38
2022-08-18T13:50:29.822Z,99986.72
2022-08-18T13:53:01.090Z,99970.81
2022-08-18T13:55:33.360Z,99966.69
2022-08-18T13:58:05.126Z,99957.47
2022-08-18T14:00:47.466Z,99963.72
2022-08-18T14:03:20.402Z,99957.59
2022-08-18T14:06:02.962Z,99951.94
2022-08-18T14:08:36.714Z,99964.84
2022-08-18T14:11:12.601Z,99959.19
2022-08-18T14:13:43.802Z,99968.53
2022-08-18T14:16:18.779Z,99965.47
2022-08-18T14:19:09.724Z,99962.44
2022-08-18T14:21:53.670Z,99959.91
2022-08-18T14:24:36.726Z,99955.13
2022-08-18T14:27:09.248Z,99951.34
2022-08-18T14:29:46.683Z,99957.88
2022-08-18T14:32:18.059Z,99960.16
2022-08-18T14:35:00.296Z,99958.84
2022-08-18T14:37:30.783Z,99956.25
2022-08-18T14:40:04.035Z,99963.19
2022-08-18T14:42:41.901Z,99960.78
2022-08-18T14:45:34.084Z,99952.00
2022-08-18T14:48:07.604Z,99949.47
2022-08-18T14:50:48.962Z,99952.09
2022-08-18T14:53:20.328Z,99954.69
2022-08-18T14:55:52.182Z,99951.78
2022-08-18T14:58:26.577Z,99951.66
2022-08-18T15:00:56.587Z,99943.53
2022-08-18T15:03:28.244Z,99948.34
2022-08-18T15:06:04.489Z,99951.41
2022-08-18T15:08:35.757Z,99960.50
2022-08-18T15:11:06.197Z,99966.81
2022-08-18T15:13:46.575Z,99963.50
2022-08-18T15:16:16.304Z,99962.94
2022-08-18T15:18:46.320Z,99969.72
2022-08-18T15:21:38.590Z,99972.75
2022-08-18T15:24:21.697Z,99986.84
2022-08-18T15:26:56.839Z,99986.84
2022-08-18T15:29:30.965Z,99985.94
2022-08-18T15:32:06.124Z,99981.47
2022-08-18T15:34:46.392Z,99985.97
2022-08-18T15:37:19.453Z,99989.50
2022-08-18T15:39:51.823Z,99978.81
2022-08-18T15:42:25.524Z,99979.94
2022-08-18T15:44:59.715Z,99984.13
2022-08-18T15:47:42.707Z,99973.31
2022-08-18T15:50:25.295Z,99974.00
2022-08-18T15:52:58.062Z,99976.22
2022-08-18T15:55:29.823Z,99976.41
2022-08-18T15:58:11.153Z,99982.63
2022-08-18T16:00:46.666Z,99980.00
2022-08-18T16:03:17.529Z,99990.75
2022-08-18T16:05:52.504Z,99983.25
2022-08-18T16:08:23.125Z,99990.59
2022-08-18T16:10:52.871Z,99985.16
2022-08-18T16:13:22.530Z,99977.81
2022-08-18T16:15:54.683Z,99987.44
2022-08-18T16:18:24.598Z,99981.31
2022-08-18T16:20:56.618Z,99979.72
2022-08-18T16:23:26.611Z,99978.63
2022-08-18T16:25:56.362Z,99974.47
2022-08-18T16:28:34.568Z,99967.94
2022-08-18T16:31:07.773Z,99970.00
2022-08-18T16:33:37.428Z,99964.09
2022-08-18T16:36:08.006Z,99968.56
2022-08-18T16:38:38.391Z,99966.13
2022-08-18T16:41:13.578Z,99973.34
2022-08-18T16:43:44.467Z,99981.53
2022-08-18T16:46:18.008Z,99973.06
2022-08-18T16:48:48.440Z,99979.25
2022-08-18T16:51:18.872Z,99979.25
2022-08-18T16:53:49.632Z,99978.28
2022-08-18T16:56:21.361Z,99977.81
2022-08-18T16:59:03.522Z,99972.84
2022-08-18T17:01:50.789Z,99967.56
2022-08-18T17:04:22.552Z,99968.22
2022-08-18T17:06:52.595Z,99959.91
2022-08-18T17:09:22.477Z,99962.75
2022-08-18T17:11:52.521Z,99962.94
2022-08-18T17:14:22.417Z,99951.09
2022-08-18T17:16:55.412Z,99955.09
2022-08-18T17:19:25.252Z,99952.84
2022-08-18T17:21:54.872Z,99949.16
2022-08-18T17:24:31.710Z,99949.97
2022-08-18T17:27:21.191Z,99950.44
2022-08-18T17:30:03.360Z,99946.22
2022-08-18T17:32:40.567Z,99944.00
2022-08-18T17:35:13.181Z,99944.16
2022-08-18T17:37:43.798Z,99957.91
2022-08-18T17:40:16.305Z,99961.22
2022-08-18T17:42:47.225Z,99951.31
2022-08-18T17:45:22.188Z,99957.50
2022-08-18T17:47:57.539Z,99953.38
2022-08-18T17:50:41.514Z,99961.38
2022-08-18T17:53:11.874Z,99964.09
2022-08-18T17:55:44.160Z,99961.06
2022-08-18T17:58:18.648Z,99959.63
2022-08-18T18:00:48.341Z,99964.38
2022-08-18T18:03:20.543Z,99964.69
2022-08-18T18:05:52.465Z,99964.03
2022-08-18T18:08:22.184Z,99968.78
2022-08-18T18:11:07.864Z,99971.69
2022-08-18T18:13:40.477Z,99964.00
2022-08-18T18:16:23.396Z,99964.31
2022-08-18T18:19:02.832Z,99964.75
2022-08-18T18:22:00.651Z,99957.59
2022-08-18T18:24:31.554Z,99961.88
2022-08-18T18:27:01.227Z,99968.72
2022-08-18T18:29:38.105Z,99972.41
2022-08-18T18:32:10.843Z,99963.47
2022-08-18T18:34:46.938Z,99972.56
2022-08-18T18:37:26.974Z,99961.13
2022-08-18T18:40:00.329Z,99968.53
2022-08-18T18:42:31.640Z,99969.75
2022-08-18T18:45:02.509Z,99968.16
2022-08-18T18:47:54.548Z,99965.75
2022-08-18T18:50:31.114Z,99965.50
2022-08-18T18:53:08.521Z,99967.97
2022-08-18T18:55:40.252Z,99972.41
2022-08-18T18:58:15.715Z,99973.38
2022-08-18T19:00:54.173Z,99974.81
2022-08-18T19:03:27.495Z,99974.19
2022-08-18T19:06:10.039Z,99971.97
2022-08-18T19:08:42.236Z,99976.09
2022-08-18T19:11:18.053Z,99982.34
2022-08-18T19:13:49.454Z,99966.38
2022-08-18T20:35:41.131Z,99986.56
2022-08-18T20:38:17.904Z,99989.00
2022-08-18T20:40:48.481Z,99984.97
2022-08-18T20:43:29.562Z,99973.03
2022-08-18T20:46:21.111Z,99976.84
2022-08-18T20:49:06.252Z,99987.66
2022-08-18T20:51:42.818Z,99985.56
2022-08-18T20:54:29.991Z,99996.69
2022-08-18T20:57:02.331Z,99991.50
2022-08-18T20:59:33.340Z,99989.28
2022-08-18T21:02:04.614Z,99993.00
2022-08-18T21:04:42.831Z,99995.91
2022-08-18T21:07:35.879Z,99998.09
2022-08-18T21:10:12.986Z,99999.28
2022-08-18T21:12:52.057Z,99998.72
2022-08-18T21:15:24.460Z,100011.25
2022-08-18T21:18:00.543Z,100003.91
2022-08-18T21:20:30.463Z,100021.16
2022-08-18T21:23:08.406Z,100028.47
2022-08-18T21:25:38.547Z,100032.88
2022-08-18T21:28:08.463Z,100033.47
2022-08-18T21:30:38.367Z,100043.31
2022-08-18T21:33:21.253Z,100038.78
2022-08-18T21:35:50.971Z,100027.47
2022-08-18T21:38:32.726Z,100024.75
2022-08-18T21:41:10.212Z,100022.88
2022-08-18T21:43:49.246Z,100027.38
2022-08-18T21:46:25.351Z,100017.84
2022-08-18T21:48:56.584Z,100024.94
2022-08-18T21:51:28.936Z,100016.91
2022-08-18T21:54:01.522Z,100029.34
2022-08-18T21:56:33.151Z,100027.94
2022-08-18T21:59:11.808Z,100030.44
2022-08-18T22:01:49.667Z,100036.75
2022-08-18T22:04:24.363Z,100026.72
2022-08-18T22:06:55.243Z,100033.50
2022-08-18T22:09:40.227Z,100028.63
2022-08-18T22:12:39.638Z,100027.81
2022-08-18T22:15:10.507Z,100024.59
2022-08-18T22:17:45.076Z,100023.22
2022-08-18T22:20:53.777Z,100022.97
2022-08-18T22:23:50.903Z,100018.47
2022-08-18T22:26:26.711Z,100032.59
2022-08-18T22:28:59.887Z,100037.75
2022-08-18T22:31:30.994Z,100044.00
2022-08-18T22:34:07.418Z,100049.41
2022-08-18T22:36:40.055Z,100051.81
2022-08-18T22:39:11.186Z,100046.78
2022-08-18T22:41:46.314Z,100049.06
2022-08-18T22:44:16.370Z,100040.72
2022-08-18T22:46:46.219Z,100040.91
2022-08-18T22:49:15.800Z,100060.81
2022-08-18T22:51:45.486Z,100050.41
2022-08-18T22:54:15.066Z,100051.72
2022-08-18T22:56:54.092Z,100051.47
2022-08-18T22:59:27.539Z,100054.19
2022-08-18T23:01:58.310Z,100059.38
2022-08-18T23:04:28.113Z,100062.91
2022-08-18T23:06:59.083Z,100068.22
2022-08-18T23:09:30.538Z,100067.69
2022-08-18T23:12:05.230Z,100065.81
2022-08-18T23:14:34.833Z,100070.31
2022-08-18T23:17:05.325Z,100071.72
2022-08-18T23:19:35.024Z,100071.13
2022-08-18T23:22:05.082Z,100065.16
2022-08-18T23:24:34.747Z,100073.75
2022-08-18T23:27:08.805Z,100072.66
2022-08-18T23:29:39.862Z,100072.75
2022-08-18T23:32:09.901Z,100064.34
2022-08-18T23:34:39.567Z,100063.31
2022-08-18T23:37:09.715Z,100061.50
2022-08-18T23:39:41.856Z,100055.81
2022-08-18T23:42:16.586Z,100054.88
2022-08-18T23:44:47.314Z,100065.38
2022-08-18T23:47:21.160Z,100070.41
2022-08-18T23:49:51.578Z,100068.81
2022-08-18T23:52:21.417Z,100061.59
2022-08-18T23:54:51.012Z,100072.69
2022-08-18T23:57:23.167Z,100057.56
2022-08-18T23:59:52.793Z,100057.28
